sensor_id;sensor_type;location;lat;lon;timestamp;pressure;altitude;pressure_sealevel;temperature;humidity
23223;BME280;11780;13.904;100.620;2023-03-21T13:21:44;100810.13;;;31.92;65.17
23223;BME280;11780;13.904;100.620;2023-03-21T13:27:34;100816.59;;;32.05;64.92
23223;BME280;11780;13.904;100.620;2023-03-21T13:30:20;100817.22;;;32.11;64.63
23223;BME280;11780;13.904;100.620;2023-03-21T13:33:08;100810.53;;;32.12;64.90
23223;BME280;11780;13.904;100.620;2023-03-21T13:35:42;100808.75;;;32.16;64.31
23223;BME280;11780;13.904;100.620;2023-03-21T13:38:17;100806.13;;;32.19;64.41
23223;BME280;11780;13.904;100.620;2023-03-21T13:40:51;100804.97;;;32.20;64.43
23223;BME280;11780;13.904;100.620;2023-03-21T13:44:15;100814.28;;;32.16;64.30
23223;BME280;11780;13.904;100.620;2023-03-21T13:48:58;100813.13;;;32.26;64.45
23223;BME280;11780;13.904;100.620;2023-03-21T13:54:21;100824.03;;;32.22;64.81
23223;BME280;11780;13.904;100.620;2023-03-21T13:56:56;100827.13;;;32.20;64.83
23223;BME280;11780;13.904;100.620;2023-03-21T14:02:27;100832.00;;;32.24;64.82
23223;BME280;11780;13.904;100.620;2023-03-21T14:05:04;100835.75;;;32.28;64.63
23223;BME280;11780;13.904;100.620;2023-03-21T14:07:43;100833.94;;;32.32;64.63
23223;BME280;11780;13.904;100.620;2023-03-21T14:10:47;100847.47;;;32.33;64.62
23223;BME280;11780;13.904;100.620;2023-03-21T14:13:24;100852.50;;;32.31;65.19
23223;BME280;11780;13.904;100.620;2023-03-21T14:16:08;100857.25;;;32.31;64.86
23223;BME280;11780;13.904;100.620;2023-03-21T14:18:58;100854.47;;;32.31;64.81
23223;BME280;11780;13.904;100.620;2023-03-21T14:21:32;100855.91;;;32.37;64.90
23223;BME280;11780;13.904;100.620;2023-03-21T14:24:06;100866.81;;;32.42;64.92
23223;BME280;11780;13.904;100.620;2023-03-21T14:26:43;100863.59;;;32.31;65.04
23223;BME280;11780;13.904;100.620;2023-03-21T14:31:56;100887.97;;;32.38;65.16
23223;BME280;11780;13.904;100.620;2023-03-21T14:34:31;100893.38;;;32.34;65.37
23223;BME280;11780;13.904;100.620;2023-03-21T14:37:06;100901.53;;;32.31;65.50
23223;BME280;11780;13.904;100.620;2023-03-21T14:39:36;100893.88;;;32.28;65.39
23223;BME280;11780;13.904;100.620;2023-03-21T14:42:11;100892.53;;;32.25;65.71
23223;BME280;11780;13.904;100.620;2023-03-21T14:44:48;100893.69;;;32.24;65.78
23223;BME280;11780;13.904;100.620;2023-03-21T14:47:27;100899.06;;;32.20;65.64
23223;BME280;11780;13.904;100.620;2023-03-21T14:49:58;100891.25;;;32.23;65.98
23223;BME280;11780;13.904;100.620;2023-03-21T14:52:30;100892.75;;;32.20;65.93
23223;BME280;11780;13.904;100.620;2023-03-21T14:55:14;100889.16;;;32.28;66.43
23223;BME280;11780;13.904;100.620;2023-03-21T14:57:45;100898.28;;;32.29;66.47
23223;BME280;11780;13.904;100.620;2023-03-21T15:00:28;100895.00;;;32.36;66.70
23223;BME280;11780;13.904;100.620;2023-03-21T15:02:59;100892.72;;;32.38;67.06
23223;BME280;11780;13.904;100.620;2023-03-21T15:05:32;100893.38;;;32.34;66.59
23223;BME280;11780;13.904;100.620;2023-03-21T15:08:14;100899.22;;;32.33;67.08
23223;BME280;11780;13.904;100.620;2023-03-21T15:11:00;100894.53;;;32.33;67.09
23223;BME280;11780;13.904;100.620;2023-03-21T15:13:47;100902.34;;;32.31;66.60
23223;BME280;11780;13.904;100.620;2023-03-21T15:16:20;100904.44;;;32.34;66.82
23223;BME280;11780;13.904;100.620;2023-03-21T15:18:51;100902.34;;;32.31;66.75
23223;BME280;11780;13.904;100.620;2023-03-21T15:21:26;100908.88;;;32.27;66.89
23223;BME280;11780;13.904;100.620;2023-03-21T15:24:08;100908.69;;;32.23;66.73
23223;BME280;11780;13.904;100.620;2023-03-21T15:26:47;100906.22;;;32.22;66.85
23223;BME280;11780;13.904;100.620;2023-03-21T15:29:18;100916.34;;;32.17;66.89
23223;BME280;11780;13.904;100.620;2023-03-21T15:31:48;100913.09;;;32.15;67.12
23223;BME280;11780;13.904;100.620;2023-03-21T15:34:23;100903.50;;;32.13;66.90
23223;BME280;11780;13.904;100.620;2023-03-21T15:37:07;100893.91;;;32.10;66.92
23223;BME280;11780;13.904;100.620;2023-03-21T15:39:45;100899.44;;;32.10;66.76
23223;BME280;11780;13.904;100.620;2023-03-21T15:45:00;100903.34;;;32.09;67.00
23223;BME280;11780;13.904;100.620;2023-03-21T15:47:41;100898.59;;;32.10;67.15
23223;BME280;11780;13.904;100.620;2023-03-21T15:50:24;100891.44;;;32.09;67.15
23223;BME280;11780;13.904;100.620;2023-03-21T15:52:58;100898.59;;;32.10;67.18
23223;BME280;11780;13.904;100.620;2023-03-21T15:55:42;100908.03;;;32.09;67.20
23223;BME280;11780;13.904;100.620;2023-03-21T15:58:25;100911.63;;;32.09;67.16
23223;BME280;11780;13.904;100.620;2023-03-21T16:01:01;100910.34;;;32.07;67.77
23223;BME280;11780;13.904;100.620;2023-03-21T16:03:42;100905.13;;;32.05;67.69
23223;BME280;11780;13.904;100.620;2023-03-21T16:06:17;100908.03;;;32.09;67.23
23223;BME280;11780;13.904;100.620;2023-03-21T16:09:14;100909.53;;;32.06;67.49
23223;BME280;11780;13.904;100.620;2023-03-21T16:11:55;100904.81;;;32.07;67.53
23223;BME280;11780;13.904;100.620;2023-03-21T16:14:27;100904.81;;;32.07;67.46
23223;BME280;11780;13.904;100.620;2023-03-21T16:16:57;100905.47;;;32.03;67.91
23223;BME280;11780;13.904;100.620;2023-03-21T16:19:27;100906.91;;;32.01;67.49
23223;BME280;11780;13.904;100.620;2023-03-21T16:21:58;100907.41;;;32.03;67.68
23223;BME280;11780;13.904;100.620;2023-03-21T16:24:28;100911.66;;;32.00;67.73
23223;BME280;11780;13.904;100.620;2023-03-21T16:26:58;100917.97;;;32.01;67.63
23223;BME280;11780;13.904;100.620;2023-03-21T16:29:29;100915.22;;;32.01;67.27
23223;BME280;11780;13.904;100.620;2023-03-21T16:31:59;100912.31;;;31.97;67.38
23223;BME280;11780;13.904;100.620;2023-03-21T16:34:34;100908.41;;;31.98;67.50
23223;BME280;11780;13.904;100.620;2023-03-21T16:37:04;100910.03;;;31.99;67.13
23223;BME280;11780;13.904;100.620;2023-03-21T16:39:34;100903.34;;;32.00;67.23
23223;BME280;11780;13.904;100.620;2023-03-21T16:42:05;100894.56;;;31.98;67.40
23223;BME280;11780;13.904;100.620;2023-03-21T16:44:35;100905.13;;;31.96;67.40
23223;BME280;11780;13.904;100.620;2023-03-21T16:47:20;100909.22;;;31.99;67.41
23223;BME280;11780;13.904;100.620;2023-03-21T16:49:54;100902.38;;;31.96;67.35
23223;BME280;11780;13.904;100.620;2023-03-21T16:52:24;100905.13;;;31.96;67.54
23223;BME280;11780;13.904;100.620;2023-03-21T16:54:54;100902.22;;;31.93;67.30
23223;BME280;11780;13.904;100.620;2023-03-21T16:57:25;100904.84;;;31.98;67.19
23223;BME280;11780;13.904;100.620;2023-03-21T16:59:58;100894.72;;;31.93;67.31
23223;BME280;11780;13.904;100.620;2023-03-21T17:02:29;100895.06;;;31.92;67.49
23223;BME280;11780;13.904;100.620;2023-03-21T17:04:59;100896.19;;;31.91;67.47
23223;BME280;11780;13.904;100.620;2023-03-21T17:07:31;100891.16;;;31.93;67.39
23223;BME280;11780;13.904;100.620;2023-03-21T17:10:01;100893.94;;;31.93;67.17
23223;BME280;11780;13.904;100.620;2023-03-21T17:12:31;100891.00;;;31.89;67.66
23223;BME280;11780;13.904;100.620;2023-03-21T17:15:01;100888.25;;;31.89;67.27
23223;BME280;11780;13.904;100.620;2023-03-21T17:17:31;100880.44;;;31.91;67.40
23223;BME280;11780;13.904;100.620;2023-03-21T17:20:21;100875.22;;;31.89;67.24
23223;BME280;11780;13.904;100.620;2023-03-21T17:22:51;100866.91;;;31.89;67.58
23223;BME280;11780;13.904;100.620;2023-03-21T17:25:21;100865.28;;;31.88;67.25
23223;BME280;11780;13.904;100.620;2023-03-21T17:27:51;100852.59;;;31.87;67.45
23223;BME280;11780;13.904;100.620;2023-03-21T17:30:26;100843.97;;;31.89;67.50
23223;BME280;11780;13.904;100.620;2023-03-21T17:32:56;100848.69;;;31.88;67.62
23223;BME280;11780;13.904;100.620;2023-03-21T17:35:27;100847.53;;;31.89;67.73
23223;BME280;11780;13.904;100.620;2023-03-21T17:37:58;100842.34;;;31.88;67.55
23223;BME280;11780;13.904;100.620;2023-03-21T17:40:30;100848.19;;;31.86;67.25
23223;BME280;11780;13.904;100.620;2023-03-21T17:43:00;100839.09;;;31.86;67.49
23223;BME280;11780;13.904;100.620;2023-03-21T17:45:30;100844.63;;;31.86;67.27
23223;BME280;11780;13.904;100.620;2023-03-21T17:48:00;100834.72;;;31.85;67.49
23223;BME280;11780;13.904;100.620;2023-03-21T17:50:31;100839.09;;;31.86;67.39
23223;BME280;11780;13.904;100.620;2023-03-21T17:53:06;100831.59;;;31.86;67.49
23223;BME280;11780;13.904;100.620;2023-03-21T17:55:36;100836.69;;;31.84;67.54
23223;BME280;11780;13.904;100.620;2023-03-21T17:58:06;100826.41;;;31.85;67.51
23223;BME280;11780;13.904;100.620;2023-03-21T18:00:38;100837.47;;;31.85;67.35
23223;BME280;11780;13.904;100.620;2023-03-21T18:03:09;100836.69;;;31.84;67.29
23223;BME280;11780;13.904;100.620;2023-03-21T18:05:39;100836.69;;;31.84;67.49
23223;BME280;11780;13.904;100.620;2023-03-21T18:08:10;100827.56;;;31.84;67.51
23223;BME280;11780;13.904;100.620;2023-03-21T18:10:41;100820.72;;;31.81;67.28
23223;BME280;11780;13.904;100.620;2023-03-21T18:13:12;100816.00;;;31.82;67.29
23223;BME280;11780;13.904;100.620;2023-03-21T18:15:42;100812.44;;;31.81;67.48
23223;BME280;11780;13.904;100.620;2023-03-21T18:18:13;100805.41;;;31.84;67.20
23223;BME280;11780;13.904;100.620;2023-03-21T18:20:43;100799.41;;;31.82;67.67
23223;BME280;11780;13.904;100.620;2023-03-21T18:23:20;100803.00;;;31.82;67.49
23223;BME280;11780;13.904;100.620;2023-03-21T18:25:51;100803.31;;;31.81;67.64
23223;BME280;11780;13.904;100.620;2023-03-21T18:28:21;100803.31;;;31.81;67.62
23223;BME280;11780;13.904;100.620;2023-03-21T18:30:53;100806.06;;;31.81;67.90
23223;BME280;11780;13.904;100.620;2023-03-21T18:33:45;100799.41;;;31.82;67.64
23223;BME280;11780;13.904;100.620;2023-03-21T18:36:19;100785.78;;;31.77;67.66
23223;BME280;11780;13.904;100.620;2023-03-21T18:38:54;100792.09;;;31.77;67.63
23223;BME280;11780;13.904;100.620;2023-03-21T18:41:25;100784.28;;;31.79;67.79
23223;BME280;11780;13.904;100.620;2023-03-21T18:43:54;100791.44;;;31.80;67.44
23223;BME280;11780;13.904;100.620;2023-03-21T18:46:39;100780.69;;;31.79;67.80
23223;BME280;11780;13.904;100.620;2023-03-21T18:49:15;100772.56;;;31.82;67.59
23223;BME280;11780;13.904;100.620;2023-03-21T18:52:06;100778.75;;;31.79;67.59
23223;BME280;11780;13.904;100.620;2023-03-21T18:54:37;100770.94;;;31.81;67.62
23223;BME280;11780;13.904;100.620;2023-03-21T18:57:08;100766.22;;;31.82;67.88
23223;BME280;11780;13.904;100.620;2023-03-21T19:00:23;100775.34;;;31.82;67.63
23223;BME280;11780;13.904;100.620;2023-03-21T19:02:54;100764.59;;;31.81;67.74
23223;BME280;11780;13.904;100.620;2023-03-21T19:05:46;100756.94;;;31.78;67.88
23223;BME280;11780;13.904;100.620;2023-03-21T19:08:15;100753.38;;;31.77;67.73
23223;BME280;11780;13.904;100.620;2023-03-21T19:10:46;100754.53;;;31.76;67.84
23223;BME280;11780;13.904;100.620;2023-03-21T19:13:16;100755.00;;;31.78;67.45
23223;BME280;11780;13.904;100.620;2023-03-21T19:15:46;100755.00;;;31.78;67.56
23223;BME280;11780;13.904;100.620;2023-03-21T19:18:16;100751.75;;;31.76;67.69
23223;BME280;11780;13.904;100.620;2023-03-21T19:21:06;100758.13;;;31.77;67.81
23223;BME280;11780;13.904;100.620;2023-03-21T19:23:37;100758.44;;;31.75;67.61
23223;BME280;11780;13.904;100.620;2023-03-21T19:26:27;100754.84;;;31.74;67.71
23223;BME280;11780;13.904;100.620;2023-03-21T19:28:57;100755.66;;;31.75;67.41
23223;BME280;11780;13.904;100.620;2023-03-21T19:31:27;100753.22;;;31.73;67.59
23223;BME280;11780;13.904;100.620;2023-03-21T19:33:57;100751.75;;;31.76;67.46
23223;BME280;11780;13.904;100.620;2023-03-21T19:36:28;100749.81;;;31.77;67.74
23223;BME280;11780;13.904;100.620;2023-03-21T19:39:01;100742.97;;;31.74;67.89
23223;BME280;11780;13.904;100.620;2023-03-21T19:41:31;100739.06;;;31.75;67.78
23223;BME280;11780;13.904;100.620;2023-03-21T19:44:03;100737.44;;;31.74;67.79
23223;BME280;11780;13.904;100.620;2023-03-21T19:46:34;100731.09;;;31.73;67.90
23223;BME280;11780;13.904;100.620;2023-03-21T19:49:04;100733.22;;;31.77;67.74
23223;BME280;11780;13.904;100.620;2023-03-21T19:51:34;100724.09;;;31.76;67.68
23223;BME280;11780;13.904;100.620;2023-03-21T19:54:05;100720.84;;;31.74;67.55
23223;BME280;11780;13.904;100.620;2023-03-21T19:56:36;100715.31;;;31.74;67.63
23223;BME280;11780;13.904;100.620;2023-03-21T19:59:13;100715.66;;;31.72;67.54
23223;BME280;11780;13.904;100.620;2023-03-21T20:01:43;100718.22;;;31.69;67.76
23223;BME280;11780;13.904;100.620;2023-03-21T20:04:15;100712.91;;;31.72;67.68
23223;BME280;11780;13.904;100.620;2023-03-21T20:06:45;100723.97;;;31.72;67.45
23223;BME280;11780;13.904;100.620;2023-03-21T20:09:16;100723.13;;;31.72;67.75
23223;BME280;11780;13.904;100.620;2023-03-21T20:12:06;100727.69;;;31.68;67.49
23223;BME280;11780;13.904;100.620;2023-03-21T20:14:36;100720.97;;;31.69;67.54
23223;BME280;11780;13.904;100.620;2023-03-21T20:17:06;100725.41;;;31.70;67.22
23223;BME280;11780;13.904;100.620;2023-03-21T20:19:36;100718.22;;;31.69;67.41
23223;BME280;11780;13.904;100.620;2023-03-21T20:22:06;100722.34;;;31.71;67.51
23223;BME280;11780;13.904;100.620;2023-03-21T20:24:50;100720.38;;;31.72;67.32
23223;BME280;11780;13.904;100.620;2023-03-21T20:27:21;100720.84;;;31.74;67.34
23223;BME280;11780;13.904;100.620;2023-03-21T20:29:56;100719.22;;;31.73;67.07
23223;BME280;11780;13.904;100.620;2023-03-21T20:32:40;100727.88;;;31.71;67.13
23223;BME280;11780;13.904;100.620;2023-03-21T20:35:13;100715.31;;;31.74;67.32
23223;BME280;11780;13.904;100.620;2023-03-21T20:38:05;100712.56;;;31.74;67.34
23223;BME280;11780;13.904;100.620;2023-03-21T20:40:38;100713.38;;;31.74;67.05
23223;BME280;11780;13.904;100.620;2023-03-21T20:43:08;100703.94;;;31.76;67.08
23223;BME280;11780;13.904;100.620;2023-03-21T20:46:04;100697.59;;;31.75;67.04
23223;BME280;11780;13.904;100.620;2023-03-21T20:48:37;100699.22;;;31.76;66.59
23223;BME280;11780;13.904;100.620;2023-03-21T20:51:10;100699.56;;;31.74;66.70
23223;BME280;11780;13.904;100.620;2023-03-21T20:54:00;100697.94;;;31.73;66.97
23223;BME280;11780;13.904;100.620;2023-03-21T20:56:31;100704.25;;;31.74;66.70
23223;BME280;11780;13.904;100.620;2023-03-21T20:59:01;100709.78;;;31.74;66.63
23223;BME280;11780;13.904;100.620;2023-03-21T21:01:50;100702.31;;;31.66;66.65
23223;BME280;11780;13.904;100.620;2023-03-21T21:04:20;100699.56;;;31.66;66.66
23223;BME280;11780;13.904;100.620;2023-03-21T21:07:14;100690.44;;;31.65;66.93
23223;BME280;11780;13.904;100.620;2023-03-21T21:09:46;100693.53;;;31.64;66.69
23223;BME280;11780;13.904;100.620;2023-03-21T21:12:16;100698.72;;;31.65;66.76
23223;BME280;11780;13.904;100.620;2023-03-21T21:14:52;100691.25;;;31.66;66.60
23223;BME280;11780;13.904;100.620;2023-03-21T21:17:22;100682.63;;;31.67;66.71
23223;BME280;11780;13.904;100.620;2023-03-21T21:20:12;100669.94;;;31.66;67.06
23223;BME280;11780;13.904;100.620;2023-03-21T21:22:47;100681.00;;;31.66;66.73
23223;BME280;11780;13.904;100.620;2023-03-21T21:25:28;100681.00;;;31.66;66.68
23223;BME280;11780;13.904;100.620;2023-03-21T21:28:00;100685.72;;;31.66;66.52
23223;BME280;11780;13.904;100.620;2023-03-21T21:30:31;100683.75;;;31.66;67.14
23223;BME280;11780;13.904;100.620;2023-03-21T21:33:03;100683.75;;;31.66;67.09
23223;BME280;11780;13.904;100.620;2023-03-21T21:35:34;100685.25;;;31.64;66.93
23223;BME280;11780;13.904;100.620;2023-03-21T21:38:04;100684.09;;;31.65;66.84
23223;BME280;11780;13.904;100.620;2023-03-21T21:40:34;100676.47;;;31.62;67.01
23223;BME280;11780;13.904;100.620;2023-03-21T21:43:05;100682.00;;;31.62;67.02
23223;BME280;11780;13.904;100.620;2023-03-21T21:45:35;100680.72;;;31.59;67.31
23223;BME280;11780;13.904;100.620;2023-03-21T21:48:05;100684.75;;;31.62;67.04
23223;BME280;11780;13.904;100.620;2023-03-21T21:50:39;100688.66;;;31.61;67.13
23223;BME280;11780;13.904;100.620;2023-03-21T21:53:10;100687.03;;;31.59;67.23
23223;BME280;11780;13.904;100.620;2023-03-21T21:55:41;100685.41;;;31.58;67.35
23223;BME280;11780;13.904;100.620;2023-03-21T21:58:11;100679.88;;;31.58;67.15
23223;BME280;11780;13.904;100.620;2023-03-21T22:00:42;100682.16;;;31.56;67.42
23223;BME280;11780;13.904;100.620;2023-03-21T22:03:13;100687.69;;;31.56;67.19
23223;BME280;11780;13.904;100.620;2023-03-21T22:05:44;100690.13;;;31.58;67.21
23223;BME280;11780;13.904;100.620;2023-03-21T22:08:15;100692.06;;;31.57;67.08
23223;BME280;11780;13.904;100.620;2023-03-21T22:10:45;100694.69;;;31.54;67.47
23223;BME280;11780;13.904;100.620;2023-03-21T22:13:16;100702.66;;;31.55;67.64
23223;BME280;11780;13.904;100.620;2023-03-21T22:15:46;100706.56;;;31.54;67.46
23223;BME280;11780;13.904;100.620;2023-03-21T22:18:16;100708.19;;;31.55;67.14
23223;BME280;11780;13.904;100.620;2023-03-21T22:20:46;100710.94;;;31.55;67.12
23223;BME280;11780;13.904;100.620;2023-03-21T22:23:16;100711.13;;;31.59;67.24
23223;BME280;11780;13.904;100.620;2023-03-21T22:25:49;100718.59;;;31.58;67.43
23223;BME280;11780;13.904;100.620;2023-03-21T22:28:20;100727.53;;;31.55;67.52
23223;BME280;11780;13.904;100.620;2023-03-21T22:30:54;100725.25;;;31.57;67.55
23223;BME280;11780;13.904;100.620;2023-03-21T22:33:25;100724.25;;;31.62;67.74
23223;BME280;11780;13.904;100.620;2023-03-21T22:35:55;100728.84;;;31.58;68.13
23223;BME280;11780;13.904;100.620;2023-03-21T22:38:25;100739.06;;;31.57;67.74
23223;BME280;11780;13.904;100.620;2023-03-21T22:40:57;100736.81;;;31.59;67.74
23223;BME280;11780;13.904;100.620;2023-03-21T22:43:27;100735.19;;;31.58;67.91
23223;BME280;11780;13.904;100.620;2023-03-21T22:45:57;100738.59;;;31.55;67.99
23223;BME280;11780;13.904;100.620;2023-03-21T22:48:27;100731.44;;;31.54;68.15
23223;BME280;11780;13.904;100.620;2023-03-21T22:50:59;100742.19;;;31.56;67.93
23223;BME280;11780;13.904;100.620;2023-03-21T22:54:48;100746.72;;;31.61;68.07
23223;BME280;11780;13.904;100.620;2023-03-21T22:57:19;100742.97;;;31.56;68.05
23223;BME280;11780;13.904;100.620;2023-03-21T22:59:49;100752.75;;;31.54;68.05
23223;BME280;11780;13.904;100.620;2023-03-21T23:02:20;100753.41;;;31.51;67.95
23223;BME280;11780;13.904;100.620;2023-03-21T23:04:49;100760.22;;;31.53;67.90
23223;BME280;11780;13.904;100.620;2023-03-21T23:07:20;100759.28;;;31.49;68.17
23223;BME280;11780;13.904;100.620;2023-03-21T23:09:49;100765.13;;;31.48;68.15
23223;BME280;11780;13.904;100.620;2023-03-21T23:12:19;100760.72;;;31.47;68.51
23223;BME280;11780;13.904;100.620;2023-03-21T23:14:50;100773.25;;;31.44;68.49
23223;BME280;11780;13.904;100.620;2023-03-21T23:17:20;100774.22;;;31.48;68.38
23223;BME280;11780;13.904;100.620;2023-03-21T23:19:50;100778.94;;;31.48;68.44
23223;BME280;11780;13.904;100.620;2023-03-21T23:22:20;100785.28;;;31.48;68.48
23223;BME280;11780;13.904;100.620;2023-03-21T23:24:50;100786.59;;;31.42;68.40
23223;BME280;11780;13.904;100.620;2023-03-21T23:27:21;100788.22;;;31.43;68.52
23223;BME280;11780;13.904;100.620;2023-03-21T23:29:51;100791.81;;;31.43;68.59
23223;BME280;11780;13.904;100.620;2023-03-21T23:32:23;100787.41;;;31.42;68.59
23223;BME280;11780;13.904;100.620;2023-03-21T23:34:53;100792.94;;;31.42;68.66
23223;BME280;11780;13.904;100.620;2023-03-21T23:37:24;100791.31;;;31.41;68.69
23223;BME280;11780;13.904;100.620;2023-03-21T23:39:55;100788.56;;;31.41;68.86
23223;BME280;11780;13.904;100.620;2023-03-21T23:42:27;100796.84;;;31.41;68.60
23223;BME280;11780;13.904;100.620;2023-03-21T23:45:00;100797.16;;;31.40;68.85
23223;BME280;11780;13.904;100.620;2023-03-21T23:47:30;100805.63;;;31.43;68.76
23223;BME280;11780;13.904;100.620;2023-03-21T23:50:00;100808.69;;;31.42;68.86
23223;BME280;11780;13.904;100.620;2023-03-21T23:52:30;100806.44;;;31.44;68.59
23223;BME280;11780;13.904;100.620;2023-03-21T23:55:00;100815.84;;;31.43;68.93
23223;BME280;11780;13.904;100.620;2023-03-21T23:57:30;100826.41;;;31.41;68.74
